Time;durP1;ratioP1;P1;durP2;ratioP2;P2;SDS_P1;SDS_P2;PMS_P1;PMS_P2;Temp;Humidity;BMP_temperature;BMP_pressure;BME280_temperature;BME280_humidity;BME280_pressure;Samples;Min_cycle;Max_cycle;Signal;HPM_P1;HPM_P2
2020/12/09 00:01:39;;;;;;;;;;;21.80;43.80;;;;;;1534297;76;733;-54
2020/12/09 00:03:41;;;;;;;;;;;21.80;43.90;;;;;;1518774;76;1941;-55
2020/12/09 00:05:44;;;;;;;;;;;21.70;43.70;;;;;;1537283;76;698;-56
2020/12/09 00:07:45;;;;;;;;;;;21.80;43.70;;;;;;1539976;76;753;-59
2020/12/09 00:09:47;;;;;;;;;;;21.80;43.80;;;;;;1534964;76;1251;-59
2020/12/09 00:11:51;;;;;;;;;;;21.80;43.70;;;;;;1535028;76;804;-57
2020/12/09 00:13:53;;;;;;;;;;;21.70;43.70;;;;;;1535019;76;1934;-56
2020/12/09 00:15:55;;;;;;;;;;;21.70;43.70;;;;;;1525983;76;593;-56
2020/12/09 00:17:57;;;;;;;;;;;21.90;43.80;;;;;;1546013;76;1061;-55
2020/12/09 00:19:59;;;;;;;;;;;21.80;43.60;;;;;;1537855;76;1140;-57
2020/12/09 00:22:01;;;;;;;;;;;21.90;43.70;;;;;;1535020;76;807;-55
2020/12/09 00:24:02;;;;;;;;;;;21.80;43.60;;;;;;1517682;76;1935;-53
2020/12/09 00:26:04;;;;;;;;;;;21.80;43.70;;;;;;1521610;76;715;-56
2020/12/09 00:28:06;;;;;;;;;;;21.80;43.70;;;;;;1534850;76;708;-54
2020/12/09 00:30:08;;;;;;;;;;;21.80;43.80;;;;;;1535023;76;1162;-57
2020/12/09 00:32:10;;;;;;;;;;;21.80;43.90;;;;;;1522903;76;701;-57
2020/12/09 00:34:12;;;;;;;;;;;21.80;43.90;;;;;;1535023;76;779;-57
2020/12/09 00:36:14;;;;;;;;;;;21.90;44.00;;;;;;1535059;76;733;-57
2020/12/09 00:38:16;;;;;;;;;;;21.90;44.00;;;;;;1534863;76;768;-56
2020/12/09 00:40:18;;;;;;;;;;;21.90;44.00;;;;;;1531787;76;1166;-56
2020/12/09 00:42:20;;;;;;;;;;;21.80;43.90;;;;;;1534242;76;739;-56
2020/12/09 00:44:21;;;;;;;;;;;21.80;44.40;;;;;;1514705;76;1949;-57
2020/12/09 00:46:24;;;;;;;;;;;21.80;44.50;;;;;;1535078;76;758;-56
2020/12/09 00:48:26;;;;;;;;;;;21.70;44.60;;;;;;1534865;76;766;-58
2020/12/09 00:50:28;;;;;;;;;;;21.70;44.40;;;;;;1535058;76;1150;-57
2020/12/09 00:52:30;;;;;;;;;;;21.70;44.30;;;;;;1533162;76;783;-57
2020/12/09 00:54:32;;;;;;;;;;;21.80;44.50;;;;;;1548760;76;795;-55
2020/12/09 00:56:34;;;;;;;;;;;21.80;44.40;;;;;;1535052;76;677;-56
2020/12/09 00:58:36;;;;;;;;;;;21.70;44.40;;;;;;1534827;76;764;-56
2020/12/09 01:00:38;;;;;;;;;;;21.80;44.30;;;;;;1516732;76;1183;-56
2020/12/09 01:02:40;;;;;;;;;;;21.70;44.30;;;;;;1510299;76;766;-54
2020/12/09 01:04:42;;;;;;;;;;;21.80;44.30;;;;;;1534878;76;1940;-56
2020/12/09 01:06:44;;;;;;;;;;;21.80;44.20;;;;;;1543474;76;698;-57
2020/12/09 01:08:46;;;;;;;;;;;21.80;44.20;;;;;;1534646;76;693;-57
2020/12/09 01:10:47;;;;;;;;;;;21.80;44.00;;;;;;1534593;76;1120;-54
2020/12/09 01:12:49;;;;;;;;;;;21.80;43.90;;;;;;1524998;76;751;-54
2020/12/09 01:14:51;;;;;;;;;;;21.80;43.90;;;;;;1521485;76;805;-54
2020/12/09 01:16:53;;;;;;;;;;;21.90;44.10;;;;;;1517387;76;756;-55
2020/12/09 01:18:55;;;;;;;;;;;21.90;44.00;;;;;;1534827;76;776;-58
2020/12/09 01:20:57;;;;;;;;;;;21.90;44.00;;;;;;1519321;76;1119;-60
2020/12/09 01:22:59;;;;;;;;;;;21.90;44.00;;;;;;1530145;76;800;-57
2020/12/09 01:25:01;;;;;;;;;;;21.90;44.00;;;;;;1534932;76;1942;-57
2020/12/09 01:27:03;;;;;;;;;;;21.80;44.10;;;;;;1527664;76;761;-57
2020/12/09 01:29:04;;;;;;;;;;;21.80;44.20;;;;;;1515940;76;733;-57
2020/12/09 01:31:06;;;;;;;;;;;21.80;44.20;;;;;;1525266;76;1120;-55
2020/12/09 01:33:08;;;;;;;;;;;21.90;44.40;;;;;;1535008;76;762;-56
2020/12/09 01:35:10;;;;;;;;;;;21.90;44.10;;;;;;1534981;76;700;-57
2020/12/09 01:37:12;;;;;;;;;;;21.90;44.30;;;;;;1534882;76;713;-56
2020/12/09 01:39:14;;;;;;;;;;;21.90;44.20;;;;;;1523336;76;730;-57
2020/12/09 01:41:17;;;;;;;;;;;21.80;44.10;;;;;;1524710;76;1126;-55
2020/12/09 01:43:19;;;;;;;;;;;21.80;44.20;;;;;;1534686;76;1924;-55
2020/12/09 01:45:21;;;;;;;;;;;21.90;44.10;;;;;;1534952;76;700;-57
2020/12/09 01:47:23;;;;;;;;;;;21.80;44.00;;;;;;1524667;76;771;-57
2020/12/09 01:49:25;;;;;;;;;;;21.90;44.10;;;;;;1535069;76;692;-59
2020/12/09 01:51:27;;;;;;;;;;;21.90;44.10;;;;;;1535011;76;1151;-59
2020/12/09 01:53:29;;;;;;;;;;;21.90;44.10;;;;;;1534999;76;675;-56
2020/12/09 01:55:31;;;;;;;;;;;21.90;44.20;;;;;;1534877;76;760;-56
2020/12/09 01:57:33;;;;;;;;;;;21.80;44.00;;;;;;1521542;76;709;-57
2020/12/09 01:59:35;;;;;;;;;;;21.80;44.20;;;;;;1513557;76;1115;-56
2020/12/09 02:01:37;;;;;;;;;;;21.80;44.40;;;;;;1534942;76;770;-56
2020/12/09 02:03:39;;;;;;;;;;;21.80;44.30;;;;;;1534932;76;1956;-56
2020/12/09 02:05:42;;;;;;;;;;;21.80;44.40;;;;;;1540422;76;809;-55
2020/12/09 02:07:43;;;;;;;;;;;21.80;44.30;;;;;;1533042;76;813;-57
2020/12/09 02:09:47;;;;;;;;;;;21.80;44.40;;;;;;1534939;76;1135;-57
2020/12/09 02:11:50;;;;;;;;;;;21.80;44.40;;;;;;1533614;76;1804;-57
2020/12/09 02:13:51;;;;;;;;;;;21.80;44.20;;;;;;1535028;76;766;-57
2020/12/09 02:15:53;;;;;;;;;;;21.80;44.30;;;;;;1529764;76;792;-59
2020/12/09 02:17:55;;;;;;;;;;;21.80;44.30;;;;;;1528959;76;780;-57
2020/12/09 02:19:57;;;;;;;;;;;21.90;44.40;;;;;;1513236;76;1138;-57
2020/12/09 02:22:01;;;;;;;;;;;21.80;44.40;;;;;;1535033;76;778;-56
2020/12/09 02:24:03;;;;;;;;;;;21.80;44.40;;;;;;1533743;76;1947;-54
2020/12/09 02:26:05;;;;;;;;;;;21.70;44.40;;;;;;1528798;76;716;-53
2020/12/09 02:28:06;;;;;;;;;;;21.80;44.40;;;;;;1530200;76;789;-58
2020/12/09 02:30:08;;;;;;;;;;;21.80;44.30;;;;;;1534879;76;1172;-57
2020/12/09 02:32:10;;;;;;;;;;;21.80;44.30;;;;;;1535010;76;687;-56
2020/12/09 02:34:12;;;;;;;;;;;21.80;44.20;;;;;;1535026;76;750;-56
2020/12/09 02:36:14;;;;;;;;;;;21.80;44.20;;;;;;1531911;76;688;-56
2020/12/09 02:38:16;;;;;;;;;;;21.80;44.20;;;;;;1534658;76;774;-56
2020/12/09 02:40:18;;;;;;;;;;;21.80;44.00;;;;;;1534900;76;1186;-56
2020/12/09 02:42:20;;;;;;;;;;;21.80;44.10;;;;;;1534993;76;815;-56
2020/12/09 02:44:22;;;;;;;;;;;21.80;43.90;;;;;;1534175;76;1940;-57
2020/12/09 02:46:23;;;;;;;;;;;21.80;44.00;;;;;;1544958;76;707;-56
2020/12/09 02:48:25;;;;;;;;;;;21.80;44.10;;;;;;1558994;76;792;-56
2020/12/09 02:50:27;;;;;;;;;;;21.80;44.10;;;;;;1550177;76;1146;-54
2020/12/09 02:52:29;;;;;;;;;;;21.80;44.10;;;;;;1564259;76;723;-54
2020/12/09 02:54:31;;;;;;;;;;;21.80;44.30;;;;;;1524183;75;779;-55
2020/12/09 02:56:33;;;;;;;;;;;21.80;44.10;;;;;;1558278;76;703;-54
2020/12/09 02:58:35;;;;;;;;;;;21.80;44.10;;;;;;1534844;76;739;-57
2020/12/09 03:00:37;;;;;;;;;;;21.80;44.10;;;;;;1534974;76;1111;-58
2020/12/09 03:02:39;;;;;;;;;;;21.80;44.10;;;;;;1535047;76;768;-57
2020/12/09 03:04:41;;;;;;;;;;;21.80;44.10;;;;;;1551798;76;1940;-57
2020/12/09 03:06:43;;;;;;;;;;;21.80;44.00;;;;;;1562570;76;701;-58
2020/12/09 03:08:44;;;;;;;;;;;21.80;44.00;;;;;;1534973;76;696;-57
2020/12/09 03:10:46;;;;;;;;;;;21.70;43.90;;;;;;1535159;76;1122;-57
2020/12/09 03:12:48;;;;;;;;;;;21.70;43.90;;;;;;1517584;76;668;-57
2020/12/09 03:14:50;;;;;;;;;;;21.80;43.90;;;;;;1527774;76;735;-54
2020/12/09 03:16:52;;;;;;;;;;;21.80;43.90;;;;;;1534658;76;736;-56
2020/12/09 03:18:54;;;;;;;;;;;21.80;43.70;;;;;;1534676;76;692;-54
2020/12/09 03:20:56;;;;;;;;;;;21.80;43.80;;;;;;1529495;76;1159;-54
2020/12/09 03:22:58;;;;;;;;;;;21.80;43.80;;;;;;1536635;76;699;-57
2020/12/09 03:24:59;;;;;;;;;;;21.80;43.70;;;;;;1544853;76;1945;-59
2020/12/09 03:27:01;;;;;;;;;;;21.80;43.80;;;;;;1523150;76;725;-56
2020/12/09 03:29:03;;;;;;;;;;;21.70;44.00;;;;;;1516459;76;742;-56
2020/12/09 03:31:05;;;;;;;;;;;21.80;44.30;;;;;;1512879;76;1141;-57
2020/12/09 03:33:07;;;;;;;;;;;21.80;44.20;;;;;;1521631;76;778;-57
2020/12/09 03:35:09;;;;;;;;;;;21.70;44.40;;;;;;1535069;76;756;-57
2020/12/09 03:37:11;;;;;;;;;;;21.70;44.30;;;;;;1534896;76;699;-57
2020/12/09 03:39:13;;;;;;;;;;;21.80;44.20;;;;;;1531327;76;686;-58
2020/12/09 03:41:15;;;;;;;;;;;21.70;44.40;;;;;;1521007;76;1057;-57
2020/12/09 03:43:17;;;;;;;;;;;21.80;44.30;;;;;;1533671;76;759;-56
2020/12/09 03:45:19;;;;;;;;;;;21.70;44.50;;;;;;1534998;76;1931;-56
2020/12/09 03:47:20;;;;;;;;;;;21.70;44.40;;;;;;1534826;76;758;-54
2020/12/09 03:49:23;;;;;;;;;;;21.80;44.60;;;;;;1525743;76;815;-53
2020/12/09 03:51:25;;;;;;;;;;;21.70;44.80;;;;;;1530671;76;1164;-56
2020/12/09 03:53:27;;;;;;;;;;;21.70;44.90;;;;;;1534946;76;839;-55
2020/12/09 03:55:29;;;;;;;;;;;21.70;45.10;;;;;;1550699;76;798;-56
2020/12/09 03:57:31;;;;;;;;;;;21.70;45.30;;;;;;1541471;76;734;-56
2020/12/09 03:59:33;;;;;;;;;;;21.70;45.30;;;;;;1531578;76;1132;-54
2020/12/09 04:01:35;;;;;;;;;;;21.70;45.40;;;;;;1535082;76;721;-58
2020/12/09 04:03:36;;;;;;;;;;;21.60;45.50;;;;;;1535041;76;751;-59
2020/12/09 04:05:38;;;;;;;;;;;21.60;45.60;;;;;;1526202;76;1940;-57
2020/12/09 04:07:40;;;;;;;;;;;21.50;45.80;;;;;;1526662;76;699;-56
2020/12/09 04:09:42;;;;;;;;;;;21.50;45.90;;;;;;1519119;76;1207;-57
2020/12/09 04:11:44;;;;;;;;;;;21.50;45.70;;;;;;1516215;76;718;-59
2020/12/09 04:13:46;;;;;;;;;;;21.60;45.60;;;;;;1534954;76;755;-57
2020/12/09 04:15:48;;;;;;;;;;;21.60;45.80;;;;;;1534921;76;726;-55
2020/12/09 04:17:49;;;;;;;;;;;21.60;46.00;;;;;;1534727;76;689;-56
2020/12/09 04:19:51;;;;;;;;;;;21.60;46.00;;;;;;1514669;76;1150;-54
2020/12/09 04:21:53;;;;;;;;;;;21.60;46.10;;;;;;1534962;76;804;-54
2020/12/09 04:23:55;;;;;;;;;;;21.60;46.30;;;;;;1534954;76;725;-58
2020/12/09 04:25:57;;;;;;;;;;;21.60;46.50;;;;;;1534900;76;1944;-58
2020/12/09 04:27:59;;;;;;;;;;;21.60;46.60;;;;;;1525217;76;772;-59
2020/12/09 04:30:01;;;;;;;;;;;21.60;46.60;;;;;;1530991;76;1164;-57
2020/12/09 04:32:03;;;;;;;;;;;21.60;46.70;;;;;;1534909;76;705;-59
2020/12/09 04:34:05;;;;;;;;;;;21.70;46.80;;;;;;1534996;76;732;-56
2020/12/09 04:36:06;;;;;;;;;;;21.70;46.80;;;;;;1534875;76;754;-58
2020/12/09 04:38:08;;;;;;;;;;;21.70;46.90;;;;;;1527712;76;714;-58
2020/12/09 04:40:10;;;;;;;;;;;21.80;46.70;;;;;;1534960;76;1118;-57
2020/12/09 04:42:14;;;;;;;;;;;21.80;46.80;;;;;;1537706;76;796;-57
2020/12/09 04:44:16;;;;;;;;;;;21.80;46.70;;;;;;1547674;76;995;-56
2020/12/09 04:46:18;;;;;;;;;;;21.80;46.80;;;;;;1517819;76;1953;-54
2020/12/09 04:48:19;;;;;;;;;;;21.80;47.10;;;;;;1525915;76;730;-57
2020/12/09 04:50:22;;;;;;;;;;;21.80;47.00;;;;;;1534962;76;1168;-57
2020/12/09 04:52:25;;;;;;;;;;;21.90;47.20;;;;;;1515492;77;765;-53
2020/12/09 04:54:29;;;;;;;;;;;21.90;47.10;;;;;;1511707;76;946;-55
2020/12/09 04:56:37;;;;;;;;;;;21.90;47.40;;;;;;1507995;77;1876;-55
2020/12/09 04:58:42;;;;;;;;;;;21.90;47.30;;;;;;1506310;77;945;-59
2020/12/09 05:00:45;;;;;;;;;;;21.90;47.20;;;;;;1505680;77;1155;-54
2020/12/09 05:02:48;;;;;;;;;;;22.00;47.10;;;;;;1510728;77;756;-56
2020/12/09 05:04:50;;;;;;;;;;;22.00;47.10;;;;;;1509789;77;1907;-54
2020/12/09 05:06:54;;;;;;;;;;;21.90;47.20;;;;;;1500105;77;723;-58
2020/12/09 05:08:56;;;;;;;;;;;22.00;47.10;;;;;;1514423;77;768;-57
2020/12/09 05:10:58;;;;;;;;;;;22.00;47.20;;;;;;1508476;77;1109;-56
2020/12/09 05:13:00;;;;;;;;;;;21.90;47.10;;;;;;1508549;77;720;-56
2020/12/09 05:15:02;;;;;;;;;;;22.00;47.10;;;;;;1512459;77;694;-55
2020/12/09 05:17:04;;;;;;;;;;;22.00;47.20;;;;;;1510818;77;701;-53
2020/12/09 05:19:06;;;;;;;;;;;22.00;47.10;;;;;;1497518;77;719;-60
2020/12/09 05:21:10;;;;;;;;;;;22.00;47.20;;;;;;1497777;77;1110;-58
2020/12/09 05:23:11;;;;;;;;;;;22.00;47.20;;;;;;1497015;77;1739;-57
2020/12/09 05:25:13;;;;;;;;;;;22.00;47.10;;;;;;1509223;77;1945;-56
2020/12/09 05:27:15;;;;;;;;;;;22.00;47.50;;;;;;1495655;77;738;-57
2020/12/09 05:29:17;;;;;;;;;;;22.00;47.10;;;;;;1494490;77;738;-56
2020/12/09 05:31:20;;;;;;;;;;;22.00;46.80;;;;;;1498461;77;1124;-57
2020/12/09 05:33:22;;;;;;;;;;;22.00;47.00;;;;;;1506709;77;734;-57
2020/12/09 05:35:24;;;;;;;;;;;22.00;46.70;;;;;;1496924;77;705;-57
2020/12/09 05:37:26;;;;;;;;;;;22.00;46.70;;;;;;1503141;77;710;-58
2020/12/09 05:39:28;;;;;;;;;;;22.10;46.60;;;;;;1494568;77;1140;-58
2020/12/09 05:41:31;;;;;;;;;;;22.10;46.60;;;;;;1497076;77;673;-57
2020/12/09 05:43:33;;;;;;;;;;;22.00;46.70;;;;;;1496648;77;706;-57
2020/12/09 05:45:35;;;;;;;;;;;22.00;46.30;;;;;;1496449;77;1934;-57
2020/12/09 05:47:36;;;;;;;;;;;22.00;46.60;;;;;;1498291;77;792;-57
2020/12/09 05:49:39;;;;;;;;;;;22.00;46.40;;;;;;1497184;77;1181;-56
2020/12/09 05:51:41;;;;;;;;;;;22.00;46.10;;;;;;1498841;77;727;-55
2020/12/09 05:53:44;;;;;;;;;;;22.00;46.20;;;;;;1512695;77;754;-59
2020/12/09 05:55:46;;;;;;;;;;;22.10;46.20;;;;;;1518830;77;839;-57
2020/12/09 05:57:48;;;;;;;;;;;22.10;46.40;;;;;;1518724;77;698;-56
2020/12/09 05:59:50;;;;;;;;;;;22.10;46.30;;;;;;1494572;77;1146;-55
2020/12/09 06:01:51;;;;;;;;;;;22.20;46.10;;;;;;1502641;77;828;-54
2020/12/09 06:03:54;;;;;;;;;;;22.20;46.30;;;;;;1486548;78;755;-54
2020/12/09 06:05:58;;;;;;;;;;;22.20;46.10;;;;;;1498688;77;1948;-57
2020/12/09 06:08:00;;;;;;;;;;;22.20;46.30;;;;;;1472600;77;1128;-56
2020/12/09 06:10:03;;;;;;;;;;;22.20;46.00;;;;;;1498193;77;1157;-55
2020/12/09 06:12:05;;;;;;;;;;;22.10;46.00;;;;;;1503053;77;784;-58
2020/12/09 06:14:09;;;;;;;;;;;22.20;46.00;;;;;;1497397;77;793;-58
2020/12/09 06:16:11;;;;;;;;;;;22.10;45.80;;;;;;1495984;77;1854;-60
2020/12/09 06:18:16;;;;;;;;;;;22.20;46.00;;;;;;1500575;77;704;-57
2020/12/09 06:20:18;;;;;;;;;;;22.20;45.70;;;;;;1497357;77;1150;-54
2020/12/09 06:22:20;;;;;;;;;;;22.20;45.80;;;;;;1495321;77;817;-58
2020/12/09 06:24:21;;;;;;;;;;;22.20;45.70;;;;;;1495005;77;781;-57
2020/12/09 06:26:23;;;;;;;;;;;22.20;45.60;;;;;;1494578;77;1950;-57
2020/12/09 06:28:26;;;;;;;;;;;22.10;45.80;;;;;;1505884;77;781;-57
2020/12/09 06:30:29;;;;;;;;;;;22.20;45.70;;;;;;1510653;77;1168;-53
2020/12/09 06:32:46;;;;;;;;;;;22.20;45.80;;;;;;1513351;77;817;-56
2020/12/09 06:35:04;;;;;;;;;;;22.20;45.60;;;;;;1496673;77;728;-55
2020/12/09 06:37:12;;;;;;;;;;;22.20;45.60;;;;;;1506690;77;700;-57
2020/12/09 06:39:16;;;;;;;;;;;22.20;45.70;;;;;;1506555;77;717;-56
2020/12/09 06:41:17;;;;;;;;;;;22.30;45.70;;;;;;1523370;77;1096;-54
2020/12/09 06:43:20;;;;;;;;;;;22.20;45.30;;;;;;1533175;77;794;-56
2020/12/09 06:45:24;;;;;;;;;;;22.20;45.30;;;;;;1549937;75;1914;-53
2020/12/09 06:47:26;;;;;;;;;;;22.30;45.40;;;;;;1520748;75;1935;-58
2020/12/09 06:49:34;;;;;;;;;;;22.20;44.80;;;;;;1517188;77;1082;-58
2020/12/09 06:51:38;;;;;;;;;;;22.10;45.20;;;;;;1535965;77;699;-56
2020/12/09 06:53:40;;;;;;;;;;;22.10;45.10;;;;;;1534538;76;1276;-57
2020/12/09 06:55:42;;;;;;;;;;;22.10;45.10;;;;;;1537336;76;739;-56
2020/12/09 06:57:44;;;;;;;;;;;22.10;45.10;;;;;;1519000;76;798;-57
2020/12/09 06:59:46;;;;;;;;;;;22.10;45.00;;;;;;1518303;77;1148;-56
2020/12/09 07:02:04;;;;;;;;;;;22.10;44.90;;;;;;1518933;77;812;-59
2020/12/09 07:04:06;;;;;;;;;;;22.00;44.80;;;;;;1518932;77;747;-55
2020/12/09 07:06:19;;;;;;;;;;;22.10;44.90;;;;;;1518875;77;1917;-59
2020/12/09 07:08:20;;;;;;;;;;;22.00;44.90;;;;;;1501351;77;710;-57
2020/12/09 07:10:23;;;;;;;;;;;22.00;44.70;;;;;;1509179;77;1177;-56
2020/12/09 07:12:25;;;;;;;;;;;22.10;44.70;;;;;;1502855;77;863;-55
2020/12/09 07:14:27;;;;;;;;;;;22.10;44.60;;;;;;1502588;77;805;-54
2020/12/09 07:16:29;;;;;;;;;;;22.00;44.50;;;;;;1515342;77;728;-54
2020/12/09 07:18:33;;;;;;;;;;;22.00;44.50;;;;;;1506789;77;738;-57
2020/12/09 07:20:35;;;;;;;;;;;22.00;44.60;;;;;;1512031;77;1969;-59
2020/12/09 07:22:37;;;;;;;;;;;22.00;44.50;;;;;;1500640;77;738;-57
2020/12/09 07:24:39;;;;;;;;;;;22.00;44.50;;;;;;1496598;77;795;-55
2020/12/09 07:26:41;;;;;;;;;;;22.00;44.40;;;;;;1498315;77;1950;-57
2020/12/09 07:28:43;;;;;;;;;;;22.00;44.40;;;;;;1514468;77;1039;-57
2020/12/09 07:30:45;;;;;;;;;;;22.00;44.40;;;;;;1513402;77;1172;-58
2020/12/09 07:32:48;;;;;;;;;;;22.00;44.30;;;;;;1505482;77;718;-57
2020/12/09 07:34:51;;;;;;;;;;;22.00;44.40;;;;;;1495371;77;722;-55
2020/12/09 07:36:54;;;;;;;;;;;22.10;44.40;;;;;;1508513;77;725;-57
2020/12/09 07:38:56;;;;;;;;;;;22.00;44.30;;;;;;1498029;77;734;-54
2020/12/09 07:41:01;;;;;;;;;;;22.00;44.20;;;;;;1512187;77;1155;-55
2020/12/09 07:43:07;;;;;;;;;;;22.00;44.20;;;;;;1512249;77;645;-57
2020/12/09 07:45:09;;;;;;;;;;;22.00;44.30;;;;;;1505989;77;742;-57
2020/12/09 07:47:12;;;;;;;;;;;22.00;44.20;;;;;;1512019;77;1922;-57
2020/12/09 07:49:13;;;;;;;;;;;22.00;44.20;;;;;;1512204;77;717;-57
2020/12/09 07:51:15;;;;;;;;;;;22.00;44.20;;;;;;1509188;77;1111;-58
2020/12/09 07:53:17;;;;;;;;;;;22.00;44.20;;;;;;1513376;77;741;-59
2020/12/09 07:55:19;;;;;;;;;;;22.00;44.20;;;;;;1509793;77;706;-56
2020/12/09 07:57:22;;;;;;;;;;;22.10;44.30;;;;;;1517521;77;706;-57
2020/12/09 07:59:24;;;;;;;;;;;22.10;44.20;;;;;;1506618;77;1078;-55
2020/12/09 08:01:29;;;;;;;;;;;22.10;44.20;;;;;;1517647;77;1152;-59
2020/12/09 08:03:31;;;;;;;;;;;22.00;44.20;;;;;;1512900;77;756;-56
2020/12/09 08:05:34;;;;;;;;;;;22.00;44.20;;;;;;1545213;77;1934;-57
2020/12/09 08:07:37;;;;;;;;;;;22.00;44.10;;;;;;1518629;77;757;-58
2020/12/09 08:09:39;;;;;;;;;;;22.00;44.30;;;;;;1512568;77;2026;-57
2020/12/09 08:11:44;;;;;;;;;;;22.00;44.20;;;;;;1513672;77;791;-59
2020/12/09 08:13:46;;;;;;;;;;;22.00;44.30;;;;;;1522543;77;816;-56
2020/12/09 08:15:49;;;;;;;;;;;22.00;44.20;;;;;;1529299;77;729;-57
2020/12/09 08:17:51;;;;;;;;;;;21.90;44.20;;;;;;1523796;76;1787;-57
2020/12/09 08:20:03;;;;;;;;;;;21.90;44.30;;;;;;1545553;77;1095;-55
2020/12/09 08:22:05;;;;;;;;;;;21.90;44.30;;;;;;1548764;75;1095;-56
2020/12/09 08:24:12;;;;;;;;;;;22.00;44.30;;;;;;1548164;75;825;-57
2020/12/09 08:26:14;;;;;;;;;;;21.90;44.40;;;;;;1535241;75;1914;-54
2020/12/09 08:28:17;;;;;;;;;;;21.90;44.30;;;;;;1556592;75;773;-56
2020/12/09 08:30:20;;;;;;;;;;;22.00;44.20;;;;;;1546701;75;1945;-56
2020/12/09 08:32:22;;;;;;;;;;;22.00;44.30;;;;;;1520246;75;796;-59
2020/12/09 08:34:24;;;;;;;;;;;21.90;44.20;;;;;;1551066;75;773;-58
2020/12/09 08:36:26;;;;;;;;;;;22.00;44.30;;;;;;1546624;75;780;-57
2020/12/09 08:38:32;;;;;;;;;;;21.90;44.20;;;;;;1553042;75;749;-59
2020/12/09 08:40:34;;;;;;;;;;;21.90;44.20;;;;;;1534511;75;1208;-57
2020/12/09 08:42:36;;;;;;;;;;;22.00;44.20;;;;;;1561623;75;785;-57
2020/12/09 08:44:38;;;;;;;;;;;21.90;44.20;;;;;;1554158;75;793;-55
2020/12/09 08:46:40;;;;;;;;;;;22.00;44.20;;;;;;1566647;75;1926;-57
2020/12/09 08:48:42;;;;;;;;;;;21.90;44.20;;;;;;1552056;75;688;-57
2020/12/09 08:50:44;;;;;;;;;;;21.90;44.20;;;;;;1541488;75;1129;-56
2020/12/09 08:52:45;;;;;;;;;;;21.90;44.30;;;;;;1547535;75;695;-57
2020/12/09 08:54:47;;;;;;;;;;;21.90;44.30;;;;;;1553932;75;671;-56
2020/12/09 08:56:49;;;;;;;;;;;21.90;44.30;;;;;;1511189;76;704;-54
2020/12/09 08:58:51;;;;;;;;;;;21.90;44.30;;;;;;1544571;77;733;-57
2020/12/09 09:00:53;;;;;;;;;;;21.80;44.20;;;;;;1549290;75;1140;-57
2020/12/09 09:02:56;;;;;;;;;;;21.80;44.20;;;;;;1547223;75;787;-58
2020/12/09 09:04:58;;;;;;;;;;;21.90;44.30;;;;;;1557744;75;781;-57
2020/12/09 09:07:00;;;;;;;;;;;21.90;44.20;;;;;;1549778;75;1947;-56
2020/12/09 09:09:02;;;;;;;;;;;21.90;44.20;;;;;;1542585;75;771;-55
2020/12/09 09:11:03;;;;;;;;;;;22.00;44.20;;;;;;1547453;75;1133;-57
2020/12/09 09:13:05;;;;;;;;;;;22.00;44.20;;;;;;1547945;75;707;-58
2020/12/09 09:15:07;;;;;;;;;;;21.90;44.20;;;;;;1549860;75;715;-56
2020/12/09 09:17:09;;;;;;;;;;;21.90;44.20;;;;;;1549837;75;764;-56
2020/12/09 09:19:11;;;;;;;;;;;21.90;44.20;;;;;;1533988;75;701;-58
2020/12/09 09:21:13;;;;;;;;;;;21.90;44.20;;;;;;1549765;75;1092;-57
2020/12/09 09:23:15;;;;;;;;;;;21.80;44.10;;;;;;1549833;75;707;-57
2020/12/09 09:25:17;;;;;;;;;;;21.80;44.10;;;;;;1549842;75;699;-60
2020/12/09 09:27:19;;;;;;;;;;;21.90;44.20;;;;;;1546612;75;1947;-57
2020/12/09 09:29:21;;;;;;;;;;;21.90;44.20;;;;;;1547444;75;754;-57
2020/12/09 09:31:22;;;;;;;;;;;21.90;44.20;;;;;;1549906;75;1129;-54
2020/12/09 09:33:24;;;;;;;;;;;21.80;44.10;;;;;;1549900;75;769;-54
2020/12/09 09:35:26;;;;;;;;;;;21.90;44.20;;;;;;1545448;75;692;-56
2020/12/09 09:37:30;;;;;;;;;;;21.90;44.20;;;;;;1542311;75;783;-57
2020/12/09 09:39:32;;;;;;;;;;;21.90;44.20;;;;;;1549741;75;2039;-59
2020/12/09 09:41:35;;;;;;;;;;;21.90;44.20;;;;;;1546762;75;731;-58
2020/12/09 09:43:37;;;;;;;;;;;21.80;44.10;;;;;;1545606;75;818;-56
2020/12/09 09:45:39;;;;;;;;;;;21.90;44.20;;;;;;1545514;75;704;-57
2020/12/09 09:47:41;;;;;;;;;;;21.90;44.20;;;;;;1537492;75;1936;-56
2020/12/09 09:49:42;;;;;;;;;;;21.90;44.10;;;;;;1545597;75;1135;-56
2020/12/09 09:51:44;;;;;;;;;;;21.90;44.10;;;;;;1545483;75;770;-55
2020/12/09 09:53:46;;;;;;;;;;;21.90;44.10;;;;;;1545960;75;694;-57
2020/12/09 09:55:48;;;;;;;;;;;21.90;44.10;;;;;;1544782;75;686;-56
2020/12/09 09:57:50;;;;;;;;;;;22.00;44.10;;;;;;1542471;75;696;-57
2020/12/09 09:59:53;;;;;;;;;;;22.00;44.10;;;;;;1544523;75;1154;-57
2020/12/09 10:01:55;;;;;;;;;;;21.80;44.00;;;;;;1549791;75;730;-56
2020/12/09 10:03:57;;;;;;;;;;;21.90;44.10;;;;;;1549931;75;777;-55
2020/12/09 10:05:59;;;;;;;;;;;21.90;44.10;;;;;;1536737;75;695;-55
2020/12/09 10:08:00;;;;;;;;;;;21.80;44.00;;;;;;1549636;75;1952;-58
2020/12/09 10:10:03;;;;;;;;;;;21.90;44.20;;;;;;1549864;75;1155;-58
2020/12/09 10:12:05;;;;;;;;;;;21.90;44.20;;;;;;1549852;75;756;-56
2020/12/09 10:14:07;;;;;;;;;;;21.80;44.10;;;;;;1543040;75;732;-56
2020/12/09 10:16:09;;;;;;;;;;;21.80;44.10;;;;;;1534540;75;809;-54
2020/12/09 10:18:11;;;;;;;;;;;21.80;44.10;;;;;;1549696;75;744;-57
2020/12/09 10:20:13;;;;;;;;;;;21.90;44.20;;;;;;1540581;75;1149;-54
2020/12/09 10:22:14;;;;;;;;;;;21.90;44.30;;;;;;1542064;75;750;-57
2020/12/09 10:24:16;;;;;;;;;;;21.90;44.10;;;;;;1539399;75;919;-57
2020/12/09 10:26:18;;;;;;;;;;;21.90;44.10;;;;;;1544553;75;711;-56
2020/12/09 10:28:20;;;;;;;;;;;21.90;44.20;;;;;;1540865;75;1796;-57
2020/12/09 10:30:22;;;;;;;;;;;21.90;44.20;;;;;;1541152;75;1180;-57
2020/12/09 10:32:25;;;;;;;;;;;21.90;44.10;;;;;;1541931;75;660;-55
2020/12/09 10:34:27;;;;;;;;;;;21.90;44.20;;;;;;1549700;75;727;-57
2020/12/09 10:36:28;;;;;;;;;;;21.90;44.20;;;;;;1549881;75;653;-58
2020/12/09 10:38:31;;;;;;;;;;;21.90;44.10;;;;;;1549667;75;699;-58
2020/12/09 10:40:33;;;;;;;;;;;21.90;44.10;;;;;;1549279;75;1111;-55
2020/12/09 10:42:35;;;;;;;;;;;22.00;44.10;;;;;;1542067;75;718;-56
2020/12/09 10:44:37;;;;;;;;;;;21.90;44.10;;;;;;1549498;75;756;-57
2020/12/09 10:46:39;;;;;;;;;;;21.90;44.10;;;;;;1549640;75;1936;-55
2020/12/09 10:48:41;;;;;;;;;;;21.90;44.00;;;;;;1549541;75;671;-56
2020/12/09 10:50:42;;;;;;;;;;;21.90;44.00;;;;;;1546636;75;1134;-57
2020/12/09 10:52:44;;;;;;;;;;;21.90;44.10;;;;;;1545820;75;721;-57
2020/12/09 10:54:46;;;;;;;;;;;21.90;44.00;;;;;;1545195;75;789;-56
2020/12/09 10:56:48;;;;;;;;;;;21.90;44.00;;;;;;1549744;75;742;-54
2020/12/09 10:58:50;;;;;;;;;;;22.00;43.90;;;;;;1549731;75;717;-54
2020/12/09 11:00:52;;;;;;;;;;;21.90;43.90;;;;;;1544167;75;1150;-57
2020/12/09 11:02:54;;;;;;;;;;;22.00;44.00;;;;;;1540034;75;689;-58
2020/12/09 11:04:56;;;;;;;;;;;21.90;44.00;;;;;;1549908;75;789;-57
2020/12/09 11:06:57;;;;;;;;;;;21.90;43.90;;;;;;1575561;75;1937;-55
2020/12/09 11:09:00;;;;;;;;;;;21.90;44.00;;;;;;1547066;75;704;-57
2020/12/09 11:11:02;;;;;;;;;;;21.90;44.00;;;;;;1534357;75;1153;-57
2020/12/09 11:13:03;;;;;;;;;;;21.90;44.00;;;;;;1539210;75;715;-56
2020/12/09 11:15:05;;;;;;;;;;;21.90;44.00;;;;;;1536996;75;675;-59
2020/12/09 11:17:07;;;;;;;;;;;21.90;44.00;;;;;;1547252;75;718;-59
2020/12/09 11:19:09;;;;;;;;;;;21.90;44.00;;;;;;1545139;75;668;-55
2020/12/09 11:21:11;;;;;;;;;;;21.80;43.90;;;;;;1544923;75;1137;-56
2020/12/09 11:23:13;;;;;;;;;;;21.90;44.10;;;;;;1547579;75;735;-56
2020/12/09 11:25:15;;;;;;;;;;;21.90;44.10;;;;;;1553410;75;711;-55
2020/12/09 11:27:17;;;;;;;;;;;21.90;44.00;;;;;;1547546;75;1929;-54
2020/12/09 11:29:19;;;;;;;;;;;21.90;44.00;;;;;;1545959;75;768;-54
2020/12/09 11:31:21;;;;;;;;;;;21.90;44.00;;;;;;1544718;75;1171;-53
2020/12/09 11:33:23;;;;;;;;;;;21.90;44.00;;;;;;1508343;77;779;-53
2020/12/09 11:35:25;;;;;;;;;;;21.90;43.90;;;;;;1509847;77;718;-55
2020/12/09 11:37:27;;;;;;;;;;;21.90;43.90;;;;;;1517477;77;779;-55
2020/12/09 11:39:29;;;;;;;;;;;21.90;43.90;;;;;;1514611;77;1089;-58
2020/12/09 11:41:33;;;;;;;;;;;21.90;43.90;;;;;;1520053;77;721;-55
2020/12/09 11:43:34;;;;;;;;;;;21.90;44.00;;;;;;1544076;75;1604;-56
2020/12/09 11:45:37;;;;;;;;;;;21.90;43.90;;;;;;1543477;75;701;-57
2020/12/09 11:47:39;;;;;;;;;;;21.90;44.00;;;;;;1538488;75;1908;-54
2020/12/09 11:49:41;;;;;;;;;;;21.90;43.90;;;;;;1549981;75;1149;-56
2020/12/09 11:51:43;;;;;;;;;;;21.90;44.00;;;;;;1553785;75;687;-58
2020/12/09 11:53:45;;;;;;;;;;;21.90;44.00;;;;;;1548526;75;728;-57
2020/12/09 11:55:47;;;;;;;;;;;21.90;44.00;;;;;;1528414;77;677;-54
2020/12/09 11:57:49;;;;;;;;;;;21.90;44.00;;;;;;1527985;76;788;-56
2020/12/09 11:59:51;;;;;;;;;;;21.90;44.00;;;;;;1525956;76;1138;-58
2020/12/09 12:01:53;;;;;;;;;;;21.90;43.70;;;;;;1543460;75;750;-59
2020/12/09 12:03:54;;;;;;;;;;;21.90;43.20;;;;;;1555784;75;715;-57
2020/12/09 12:05:56;;;;;;;;;;;21.80;43.10;;;;;;1548986;75;769;-59
2020/12/09 12:07:59;;;;;;;;;;;21.80;42.80;;;;;;1547592;75;1940;-56
2020/12/09 12:10:01;;;;;;;;;;;21.90;43.20;;;;;;1545005;75;1178;-57